Elkridge, Maryland
Current Conditions -  °F | °C
As of 11:54 AM on Sunday 23 Nov 2014 (Local Time) from KBWI Reporting Station
Broken Clouds Broken Clouds  
Wind Chill: 46°   Ceiling: 25000
Heat Index: 48°   Visibility: 10mi
Dew Point: 22°   Wind: 5mph
Humidity: 36%   Direction: 200°SSW
Pressure: 30.17"   Gusts: NA
Location:  39.21°N, 76.73°W
Report Text: KBWI 231654Z 20004KT 10SM FEW210 BKN250 09/M06 A3017 RMK AO2 SLP218 ACC S T00891056
Loading
Personal Weather Stations






























Interactive Weather Map New forecast layout! Learn more

10-Day Weather Forecast

Advertisements
Track Severe Weather on mobile